createdAt,value
2019-05-05T00:00:44.780Z,11.13
2019-05-05T00:03:14.950Z,9.47
2019-05-05T00:05:44.738Z,11.80
2019-05-05T00:08:15.253Z,11.13
2019-05-05T00:11:00.562Z,11.17
2019-05-05T00:13:30.405Z,9.87
2019-05-05T00:16:00.222Z,9.97
2019-05-05T00:18:30.310Z,11.97
2019-05-05T00:20:58.787Z,12.50
2019-05-05T00:23:27.262Z,10.23
2019-05-05T00:25:55.509Z,14.40
2019-05-05T00:28:24.879Z,10.47
2019-05-05T00:30:55.387Z,15.03
2019-05-05T00:33:24.876Z,12.60
2019-05-05T00:35:54.537Z,12.27
2019-05-05T00:38:24.802Z,16.07
2019-05-05T00:40:54.854Z,13.60
2019-05-05T00:43:25.101Z,16.27
2019-05-05T00:45:55.629Z,13.17
2019-05-05T00:48:28.564Z,17.27
2019-05-05T00:50:57.040Z,14.27
2019-05-05T00:53:25.264Z,15.93
2019-05-05T00:55:54.715Z,17.47
2019-05-05T00:58:24.742Z,20.47
2019-05-05T01:01:05.300Z,14.40
2019-05-05T01:03:34.775Z,14.70
2019-05-05T01:06:09.015Z,15.23
2019-05-05T01:08:37.219Z,19.17
2019-05-05T01:11:05.492Z,18.37
2019-05-05T01:13:35.150Z,16.80
2019-05-05T01:16:04.814Z,15.37
2019-05-05T01:18:34.997Z,16.17
2019-05-05T01:21:04.558Z,15.97
2019-05-05T01:23:34.788Z,17.70
2019-05-05T01:26:05.039Z,14.93
2019-05-05T01:28:35.349Z,13.03
2019-05-05T01:31:05.603Z,14.20
2019-05-05T01:33:38.623Z,15.73
2019-05-05T01:36:07.161Z,16.60
2019-05-05T01:38:39.560Z,15.40
2019-05-05T01:41:10.167Z,15.80
2019-05-05T01:43:38.388Z,19.73
2019-05-05T01:46:06.666Z,14.10
2019-05-05T01:48:35.169Z,19.23
2019-05-05T01:51:05.020Z,20.50
2019-05-05T01:53:34.940Z,20.37
2019-05-05T01:56:04.847Z,19.70
2019-05-05T01:58:34.870Z,20.20
2019-05-05T02:01:05.033Z,20.27
2019-05-05T02:03:35.005Z,18.27
2019-05-05T02:06:05.097Z,19.53
2019-05-05T02:08:34.983Z,17.47
2019-05-05T02:11:05.199Z,22.37
2019-05-05T02:13:34.674Z,15.93
2019-05-05T02:16:04.616Z,15.90
2019-05-05T02:18:34.632Z,18.80
2019-05-05T02:21:05.851Z,14.70
2019-05-05T02:23:35.331Z,15.57
2019-05-05T02:26:04.814Z,13.60
2019-05-05T02:28:37.359Z,17.80
2019-05-05T02:31:16.396Z,16.37
2019-05-05T02:33:46.009Z,19.63
2019-05-05T02:36:15.740Z,18.57
2019-05-05T02:38:46.272Z,16.83
2019-05-05T02:41:15.474Z,16.10
2019-05-05T02:43:45.083Z,16.87
2019-05-05T02:46:35.430Z,15.30
2019-05-05T02:49:05.340Z,14.63
2019-05-05T02:51:35.439Z,14.43
2019-05-05T02:54:05.129Z,16.03
2019-05-05T02:56:39.966Z,18.23
2019-05-05T02:59:10.292Z,15.70
2019-05-05T03:01:41.414Z,20.70
2019-05-05T03:04:11.207Z,18.17
2019-05-05T03:06:43.707Z,17.63
2019-05-05T03:09:13.839Z,17.93
2019-05-05T03:11:43.906Z,15.70
2019-05-05T03:14:14.406Z,18.03
2019-05-05T03:16:43.587Z,21.20
2019-05-05T03:19:14.122Z,18.33
2019-05-05T03:21:44.147Z,18.23
2019-05-05T03:24:14.333Z,15.73
2019-05-05T03:26:44.440Z,21.37
2019-05-05T03:29:15.063Z,24.20
2019-05-05T03:31:45.945Z,23.03
2019-05-05T03:34:16.299Z,22.57
2019-05-05T03:36:44.909Z,21.47
2019-05-05T03:39:14.883Z,19.63
2019-05-05T03:41:54.377Z,19.33
2019-05-05T03:44:24.389Z,16.93
2019-05-05T03:46:54.346Z,21.67
2019-05-05T03:49:24.375Z,19.70
2019-05-05T03:51:54.369Z,20.00
2019-05-05T03:54:23.848Z,19.07
2019-05-05T03:56:54.547Z,17.40
2019-05-05T03:59:24.327Z,18.27
2019-05-05T04:01:54.670Z,19.83
2019-05-05T04:04:27.439Z,19.57
2019-05-05T04:06:57.403Z,19.23
2019-05-05T04:09:26.047Z,19.93
2019-05-05T04:11:54.755Z,21.10
2019-05-05T04:14:25.060Z,17.60
2019-05-05T04:17:11.486Z,17.67
2019-05-05T04:19:54.205Z,17.83
2019-05-05T04:22:23.771Z,20.20
2019-05-05T04:24:54.114Z,20.80
2019-05-05T04:27:23.890Z,16.43
2019-05-05T04:29:54.293Z,17.07
2019-05-05T04:32:24.453Z,19.37
2019-05-05T04:34:54.304Z,19.77
2019-05-05T04:37:23.939Z,18.17
2019-05-05T04:39:53.713Z,17.37
2019-05-05T04:42:23.971Z,17.63
2019-05-05T04:44:53.819Z,22.00
2019-05-05T04:47:23.871Z,17.40
2019-05-05T04:49:56.506Z,18.87
2019-05-05T04:52:26.673Z,19.87
2019-05-05T04:54:56.788Z,22.17
2019-05-05T04:57:25.086Z,17.20
2019-05-05T04:59:53.982Z,22.03
2019-05-05T05:02:40.603Z,18.53
2019-05-05T05:05:16.550Z,18.93
2019-05-05T05:07:44.749Z,16.73
2019-05-05T05:10:13.825Z,17.93
2019-05-05T05:12:43.631Z,20.93
2019-05-05T05:15:14.622Z,16.20
2019-05-05T05:17:49.967Z,17.30
2019-05-05T05:20:18.315Z,21.03
2019-05-05T05:22:46.918Z,20.97
2019-05-05T05:25:15.116Z,25.40
2019-05-05T05:27:44.308Z,21.83
2019-05-05T05:30:13.996Z,23.83
2019-05-05T05:32:44.389Z,22.57
2019-05-05T05:35:14.102Z,18.37
2019-05-05T05:37:44.571Z,17.80
2019-05-05T05:40:16.819Z,16.90
2019-05-05T05:42:45.013Z,14.47
2019-05-05T05:45:26.899Z,15.20
2019-05-05T05:48:14.425Z,10.83
2019-05-05T05:50:50.798Z,11.77
2019-05-05T05:53:18.975Z,8.47
2019-05-05T05:55:47.450Z,13.23
2019-05-05T05:58:15.663Z,16.73
2019-05-05T06:00:44.396Z,14.73
2019-05-05T06:03:14.248Z,16.13
2019-05-05T06:05:43.655Z,13.60
2019-05-05T06:08:13.937Z,15.83
2019-05-05T06:10:44.070Z,12.37
2019-05-05T06:13:14.863Z,13.50
2019-05-05T06:15:41.870Z,12.07
2019-05-05T06:18:10.324Z,12.03
2019-05-05T06:20:38.535Z,13.53
2019-05-05T06:23:06.726Z,14.87
2019-05-05T06:25:37.971Z,12.30
2019-05-05T06:28:05.287Z,16.33
2019-05-05T06:30:33.765Z,13.03
2019-05-05T06:33:02.083Z,13.80
2019-05-05T06:35:30.306Z,12.67
2019-05-05T06:37:58.496Z,12.77
2019-05-05T06:40:34.204Z,18.87
2019-05-05T06:43:04.452Z,21.43
2019-05-05T06:45:40.272Z,18.63
2019-05-05T06:48:08.763Z,12.47
2019-05-05T06:50:36.979Z,13.63
2019-05-05T06:53:05.177Z,13.63
2019-05-05T06:55:34.126Z,12.27
2019-05-05T06:58:04.627Z,12.00
2019-05-05T07:00:34.669Z,12.17
2019-05-05T07:03:05.835Z,15.40
2019-05-05T07:05:34.073Z,18.33
2019-05-05T07:08:04.460Z,10.47
2019-05-05T07:10:33.874Z,10.93
2019-05-05T07:13:02.320Z,14.33
2019-05-05T07:15:30.871Z,18.60
2019-05-05T07:17:59.087Z,15.73
2019-05-05T07:20:27.299Z,13.90
2019-05-05T07:23:01.506Z,17.57
2019-05-05T07:25:39.074Z,13.00
2019-05-05T07:27:55.739Z,15.30
2019-05-05T07:30:24.369Z,11.00
2019-05-05T07:32:53.736Z,12.33
2019-05-05T07:35:29.959Z,11.87
2019-05-05T07:37:58.180Z,14.90
2019-05-05T07:40:26.723Z,13.40
2019-05-05T07:42:54.906Z,12.37
2019-05-05T07:45:25.769Z,18.47
2019-05-05T07:47:54.309Z,13.87
2019-05-05T07:50:29.523Z,13.57
2019-05-05T07:52:54.589Z,12.40
2019-05-05T07:55:23.844Z,20.83
2019-05-05T07:57:53.812Z,17.13
2019-05-05T08:00:24.091Z,16.43
2019-05-05T08:02:54.286Z,16.50
2019-05-05T08:05:24.547Z,19.73
2019-05-05T08:07:53.939Z,14.97
2019-05-05T08:10:24.128Z,15.67
2019-05-05T08:12:54.242Z,17.33
2019-05-05T08:15:23.864Z,19.33
2019-05-05T08:17:54.003Z,15.20
2019-05-05T08:20:27.380Z,18.53
2019-05-05T08:22:55.582Z,13.80
2019-05-05T08:25:39.179Z,17.13
2019-05-05T08:28:09.203Z,13.80
2019-05-05T08:30:57.550Z,15.23
2019-05-05T08:33:26.026Z,17.43
2019-05-05T08:35:54.281Z,18.77
2019-05-05T08:38:24.259Z,19.53
2019-05-05T08:40:54.325Z,17.03
2019-05-05T08:43:24.137Z,17.23
2019-05-05T08:45:52.562Z,17.07
2019-05-05T08:48:21.113Z,23.13
2019-05-05T08:50:49.330Z,18.10
2019-05-05T08:53:17.506Z,18.23
2019-05-05T08:55:45.689Z,18.60
2019-05-05T08:58:14.919Z,21.07
2019-05-05T09:00:44.385Z,22.10
2019-05-05T09:03:13.870Z,16.70
2019-05-05T09:05:43.721Z,24.80
2019-05-05T09:08:13.831Z,17.70
2019-05-05T09:10:44.603Z,17.73
2019-05-05T09:13:14.280Z,17.43
2019-05-05T09:15:44.282Z,22.27
2019-05-05T09:18:14.140Z,23.93
2019-05-05T09:20:44.491Z,18.13
2019-05-05T09:23:14.573Z,16.50
2019-05-05T09:25:46.797Z,21.57
2019-05-05T09:28:34.139Z,21.67
2019-05-05T09:31:04.169Z,14.33
2019-05-05T09:33:33.861Z,17.27
2019-05-05T09:36:04.661Z,19.43
2019-05-05T09:38:34.744Z,22.03
2019-05-05T09:41:03.816Z,19.17
2019-05-05T09:43:34.347Z,17.97
2019-05-05T09:46:03.923Z,16.63
2019-05-05T09:48:33.609Z,18.87
2019-05-05T09:51:04.206Z,17.37
2019-05-05T09:53:34.269Z,18.87
2019-05-05T09:56:04.088Z,22.83
2019-05-05T09:58:32.195Z,16.07
2019-05-05T10:01:00.393Z,19.47
2019-05-05T10:03:28.998Z,16.13
2019-05-05T10:05:57.274Z,14.23
2019-05-05T10:08:25.489Z,17.53
2019-05-05T10:10:54.703Z,13.23
2019-05-05T10:13:23.130Z,15.77
2019-05-05T10:15:51.589Z,20.70
2019-05-05T10:18:19.805Z,12.00
2019-05-05T10:20:48.345Z,12.23
2019-05-05T10:23:16.568Z,15.43
2019-05-05T10:25:46.411Z,19.97
2019-05-05T10:28:14.672Z,19.43
2019-05-05T10:30:43.292Z,20.93
2019-05-05T10:33:11.492Z,18.10
2019-05-05T10:35:40.144Z,16.73
2019-05-05T10:38:08.327Z,18.77
2019-05-05T10:40:36.517Z,17.30
2019-05-05T10:43:05.376Z,16.57
2019-05-05T10:45:34.571Z,14.00
2019-05-05T10:48:04.057Z,18.77
2019-05-05T10:50:34.046Z,11.10
2019-05-05T10:53:04.608Z,10.10
2019-05-05T10:55:34.663Z,15.43
2019-05-05T10:58:03.380Z,16.17
2019-05-05T11:00:50.968Z,14.43
2019-05-05T11:03:20.354Z,11.37
2019-05-05T11:05:48.751Z,18.10
2019-05-05T11:08:17.318Z,14.90
2019-05-05T11:10:45.575Z,15.97
2019-05-05T11:13:13.868Z,13.53
2019-05-05T11:15:44.089Z,19.07
2019-05-05T11:18:14.429Z,13.53
2019-05-05T11:20:41.947Z,10.47
2019-05-05T11:23:10.147Z,11.93
2019-05-05T11:25:38.352Z,14.13
2019-05-05T11:28:08.182Z,13.83
2019-05-05T11:30:38.800Z,8.70
2019-05-05T11:33:17.603Z,6.97
2019-05-05T11:35:47.458Z,6.50
2019-05-05T11:38:15.638Z,9.47
2019-05-05T11:40:44.060Z,8.73
2019-05-05T11:43:14.258Z,6.23
2019-05-05T11:45:43.816Z,4.87
2019-05-05T11:48:14.624Z,9.87
2019-05-05T11:50:43.644Z,6.37
2019-05-05T11:53:12.040Z,10.33
2019-05-05T11:55:40.229Z,7.93
2019-05-05T11:58:08.446Z,12.63
2019-05-05T12:00:37.009Z,9.23
2019-05-05T12:03:05.685Z,8.07
2019-05-05T12:05:34.272Z,13.93
2019-05-05T12:08:03.898Z,10.70
2019-05-05T12:10:34.425Z,16.20
2019-05-05T12:13:04.394Z,11.13
2019-05-05T12:15:34.127Z,12.20
2019-05-05T12:18:03.826Z,9.97
2019-05-05T12:20:37.382Z,7.93
2019-05-05T12:23:06.944Z,9.77
2019-05-05T12:25:49.346Z,13.33
2019-05-05T12:28:21.117Z,8.53
2019-05-05T12:30:49.701Z,10.77
2019-05-05T12:33:18.273Z,11.43
2019-05-05T12:35:46.463Z,21.87
2019-05-05T12:38:15.024Z,10.33
2019-05-05T12:40:44.271Z,9.40
2019-05-05T12:43:14.200Z,12.10
2019-05-05T12:45:56.347Z,10.27
2019-05-05T12:48:38.540Z,10.50
2019-05-05T12:51:06.805Z,13.73
2019-05-05T12:53:35.030Z,15.57
2019-05-05T12:56:04.111Z,10.47
2019-05-05T12:58:33.565Z,10.37
2019-05-05T13:01:21.564Z,10.63
2019-05-05T13:03:49.783Z,9.00
2019-05-05T13:06:18.079Z,10.47
2019-05-05T13:08:46.259Z,9.37
2019-05-05T13:11:14.635Z,8.90
2019-05-05T13:13:43.980Z,8.47
2019-05-05T13:16:13.624Z,8.67
2019-05-05T13:18:42.007Z,10.83
2019-05-05T13:21:12.222Z,9.03
2019-05-05T13:23:57.101Z,8.13
2019-05-05T13:26:38.672Z,8.73
2019-05-05T13:29:07.368Z,9.67
2019-05-05T13:31:35.848Z,8.67
2019-05-05T13:34:04.509Z,6.83
2019-05-05T13:36:33.458Z,8.27
2019-05-05T13:39:02.104Z,9.63
2019-05-05T13:41:30.327Z,8.67
2019-05-05T13:43:59.608Z,5.63
2019-05-05T13:46:29.696Z,5.80
2019-05-05T13:48:59.569Z,7.00
2019-05-05T13:51:28.103Z,10.90
2019-05-05T13:53:56.387Z,10.57
2019-05-05T13:56:24.626Z,8.17
2019-05-05T13:58:52.865Z,8.13
2019-05-05T14:01:23.679Z,11.83
2019-05-05T14:03:54.003Z,7.87
2019-05-05T14:06:29.611Z,7.77
2019-05-05T14:08:59.753Z,10.20
2019-05-05T14:11:48.248Z,10.97
2019-05-05T14:14:18.126Z,7.60
2019-05-05T14:16:46.362Z,10.67
2019-05-05T14:19:19.171Z,10.20
2019-05-05T14:21:44.800Z,7.27
2019-05-05T14:24:25.163Z,6.07
2019-05-05T14:26:54.212Z,4.93
2019-05-05T14:29:38.053Z,8.43
2019-05-05T14:32:13.666Z,8.37
2019-05-05T14:34:45.077Z,9.67
2019-05-05T14:40:14.596Z,6.13
2019-05-05T14:42:44.553Z,8.67
2019-05-05T14:45:15.937Z,6.00
2019-05-05T14:47:48.603Z,4.40
2019-05-05T14:50:21.531Z,5.70
2019-05-05T14:52:49.787Z,6.57
2019-05-05T14:55:22.645Z,5.53
2019-05-05T14:57:55.120Z,10.93
2019-05-05T15:00:27.161Z,8.73
2019-05-05T15:02:56.991Z,7.17
2019-05-05T15:05:35.585Z,6.30
2019-05-05T15:08:15.945Z,8.47
2019-05-05T15:10:51.312Z,7.17
2019-05-05T15:13:24.267Z,5.13
2019-05-05T15:18:48.189Z,7.33
2019-05-05T15:21:18.937Z,8.47
2019-05-05T15:23:47.246Z,8.63
2019-05-05T15:26:17.776Z,6.97
2019-05-05T15:28:58.579Z,10.27
2019-05-05T15:31:23.654Z,9.23
2019-05-05T15:33:55.918Z,9.30
2019-05-05T15:36:24.365Z,12.13
2019-05-05T15:38:52.697Z,9.10
2019-05-05T15:41:24.097Z,12.10
2019-05-05T15:43:55.987Z,13.37
2019-05-05T15:46:24.453Z,11.23
2019-05-05T15:48:54.641Z,12.43
2019-05-05T15:51:27.316Z,11.47
2019-05-05T15:53:57.289Z,12.37
2019-05-05T15:56:28.575Z,8.33
2019-05-05T15:59:00.022Z,10.63
2019-05-05T16:01:30.141Z,10.80
2019-05-05T16:04:03.625Z,11.33
2019-05-05T16:06:36.224Z,10.03
2019-05-05T16:09:09.863Z,6.77
2019-05-05T16:11:38.538Z,4.10
2019-05-05T16:14:08.353Z,7.57
2019-05-05T16:16:50.161Z,7.10
2019-05-05T16:19:29.162Z,7.27
2019-05-05T16:22:01.322Z,7.20
2019-05-05T16:24:36.761Z,8.50
2019-05-05T16:27:18.694Z,12.13
2019-05-05T16:29:37.301Z,9.77
2019-05-05T16:32:18.542Z,11.73
2019-05-05T16:34:35.648Z,9.97
2019-05-05T16:37:04.270Z,11.90
2019-05-05T16:39:33.555Z,9.40
2019-05-05T16:42:03.294Z,11.77
2019-05-05T16:44:34.090Z,11.30
2019-05-05T16:47:04.772Z,9.20
2019-05-05T16:49:35.490Z,9.27
2019-05-05T16:52:05.640Z,11.50
2019-05-05T16:54:41.577Z,9.30
2019-05-05T16:57:11.367Z,8.10
2019-05-05T16:59:44.110Z,5.93
2019-05-05T17:02:16.484Z,8.40
2019-05-05T17:04:43.376Z,7.90
2019-05-05T17:07:11.740Z,7.40
2019-05-05T17:09:40.035Z,8.33
2019-05-05T17:12:14.265Z,8.97
2019-05-05T17:14:45.649Z,8.07
2019-05-05T17:17:18.676Z,12.20
2019-05-05T17:19:48.564Z,7.87
2019-05-05T17:22:21.583Z,8.77
2019-05-05T17:24:53.416Z,9.77
2019-05-05T17:27:27.306Z,6.67
2019-05-05T17:29:55.936Z,9.47
2019-05-05T17:32:25.733Z,14.07
2019-05-05T17:34:58.115Z,12.93
2019-05-05T17:37:25.513Z,9.53
2019-05-05T17:39:56.766Z,6.33
2019-05-05T17:42:34.643Z,8.13
2019-05-05T17:45:06.645Z,9.67
2019-05-05T17:47:37.977Z,6.90
2019-05-05T17:50:15.068Z,7.80
2019-05-05T17:52:47.951Z,5.50
2019-05-05T17:55:31.249Z,12.93
2019-05-05T17:58:02.309Z,7.83
2019-05-05T18:00:31.208Z,10.13
2019-05-05T18:02:59.611Z,6.03
2019-05-05T18:05:45.938Z,7.60
2019-05-05T18:08:35.935Z,6.07
2019-05-05T18:11:08.832Z,6.40
2019-05-05T18:13:39.103Z,7.67
2019-05-05T18:16:07.420Z,9.73
2019-05-05T18:18:35.723Z,10.17
2019-05-05T18:21:05.248Z,7.33
2019-05-05T18:23:34.147Z,8.67
2019-05-05T18:26:04.162Z,5.93
2019-05-05T18:28:34.063Z,5.20
2019-05-05T18:31:02.508Z,5.93
2019-05-05T18:33:30.792Z,10.13
2019-05-05T18:35:59.056Z,11.70
2019-05-05T18:38:27.355Z,5.50
2019-05-05T18:40:57.208Z,8.47
2019-05-05T18:43:35.869Z,7.37
2019-05-05T18:46:05.361Z,10.03
2019-05-05T18:48:37.019Z,9.60
2019-05-05T18:51:07.461Z,10.37
2019-05-05T18:53:37.204Z,9.43
2019-05-05T18:56:07.378Z,7.87
2019-05-05T18:58:38.419Z,7.33
2019-05-05T19:01:24.983Z,9.37
2019-05-05T19:04:05.331Z,7.63
2019-05-05T19:06:38.673Z,10.43
2019-05-05T19:09:09.394Z,12.47
2019-05-05T19:14:29.854Z,8.70
2019-05-05T19:16:57.984Z,9.47
2019-05-05T19:19:27.442Z,11.77
2019-05-05T19:22:00.294Z,9.20
2019-05-05T19:24:35.157Z,10.93
2019-05-05T19:27:00.244Z,14.47
2019-05-05T19:29:28.532Z,11.63
2019-05-05T19:31:57.016Z,11.67
2019-05-05T19:34:26.490Z,11.17
2019-05-05T19:37:03.906Z,10.30
2019-05-05T19:39:26.949Z,8.67
2019-05-05T19:41:57.586Z,12.60
2019-05-05T19:44:27.217Z,11.00
2019-05-05T19:47:05.969Z,13.20
2019-05-05T19:49:35.485Z,9.47
2019-05-05T19:52:05.844Z,8.43
2019-05-05T19:54:36.331Z,9.53
2019-05-05T19:57:05.616Z,10.70
2019-05-05T19:59:39.879Z,6.60
2019-05-05T20:02:08.141Z,9.53
2019-05-05T20:04:36.374Z,9.70
2019-05-05T20:07:04.646Z,13.03
2019-05-05T20:09:34.051Z,11.00
2019-05-05T20:12:04.041Z,13.60
2019-05-05T20:14:34.381Z,11.13
2019-05-05T20:17:11.116Z,10.60
2019-05-05T20:19:44.002Z,9.13
2019-05-05T20:27:47.132Z,12.90
2019-05-05T20:30:16.468Z,12.43
2019-05-05T20:32:46.323Z,10.20
2019-05-05T20:35:33.673Z,13.53
2019-05-05T20:38:08.796Z,14.13
2019-05-05T20:40:56.188Z,12.50
2019-05-05T20:43:24.463Z,12.27
2019-05-05T20:45:53.875Z,10.70
2019-05-05T20:48:23.948Z,13.40
2019-05-05T20:50:52.135Z,9.90
2019-05-05T20:53:20.500Z,13.90
2019-05-05T20:55:49.212Z,14.83
2019-05-05T20:58:18.947Z,12.30
2019-05-05T21:00:47.684Z,11.33
2019-05-05T21:03:15.925Z,11.03
2019-05-05T21:05:44.295Z,15.60
2019-05-05T21:08:14.154Z,12.50
2019-05-05T21:10:44.216Z,12.40
2019-05-05T21:13:14.395Z,11.80
2019-05-05T21:15:45.059Z,11.63
2019-05-05T21:18:15.717Z,13.73
2019-05-05T21:20:43.458Z,12.70
2019-05-05T21:23:16.429Z,9.93
2019-05-05T21:25:58.279Z,15.30
2019-05-05T21:28:28.917Z,10.13
2019-05-05T21:30:57.161Z,12.23
2019-05-05T21:33:28.225Z,12.07
2019-05-05T21:35:56.700Z,13.57
2019-05-05T21:38:24.922Z,10.33
2019-05-05T21:40:53.140Z,11.03
2019-05-05T21:43:21.404Z,10.53
2019-05-05T21:45:49.596Z,10.73
2019-05-05T21:48:17.824Z,11.13
2019-05-05T21:50:50.978Z,13.60
2019-05-05T21:53:24.497Z,14.00
2019-05-05T21:56:04.202Z,11.63
2019-05-05T21:58:34.595Z,10.77
2019-05-05T22:01:04.645Z,7.33
2019-05-05T22:03:41.457Z,9.40
2019-05-05T22:06:14.589Z,9.60
2019-05-05T22:08:45.630Z,8.73
2019-05-05T22:11:14.619Z,9.50
2019-05-05T22:13:44.254Z,8.30
2019-05-05T22:16:13.612Z,9.10
2019-05-05T22:21:31.125Z,7.43
2019-05-05T22:24:17.032Z,8.67
2019-05-05T22:26:49.613Z,11.47
2019-05-05T22:29:19.696Z,13.50
2019-05-05T22:31:48.170Z,10.40
2019-05-05T22:34:17.146Z,9.43
2019-05-05T22:36:45.430Z,9.70
2019-05-05T22:39:17.024Z,8.83
2019-05-05T22:41:45.301Z,8.83
2019-05-05T22:44:14.127Z,8.93
2019-05-05T22:46:45.162Z,13.30
2019-05-05T22:49:14.567Z,9.93
2019-05-05T22:51:44.525Z,10.07
2019-05-05T22:54:14.719Z,9.03
2019-05-05T22:56:44.742Z,10.23
2019-05-05T22:59:13.902Z,11.30
2019-05-05T23:01:42.369Z,8.23
2019-05-05T23:04:14.347Z,7.43
2019-05-05T23:06:46.780Z,14.17
2019-05-05T23:12:04.297Z,9.57
2019-05-05T23:14:34.257Z,9.77
2019-05-05T23:17:07.267Z,11.83
2019-05-05T23:19:37.527Z,9.20
2019-05-05T23:22:07.368Z,9.47
2019-05-05T23:24:37.212Z,10.70
2019-05-05T23:27:05.600Z,6.67
2019-05-05T23:29:34.235Z,6.73
2019-05-05T23:32:02.869Z,9.00
2019-05-05T23:34:31.080Z,11.27
2019-05-05T23:36:59.279Z,5.57
2019-05-05T23:39:27.786Z,11.10
2019-05-05T23:41:56.454Z,9.00
2019-05-05T23:44:24.946Z,7.33
2019-05-05T23:46:53.743Z,10.47
2019-05-05T23:49:24.268Z,8.67
2019-05-05T23:51:53.951Z,7.93
2019-05-05T23:54:24.590Z,9.90
2019-05-05T23:56:53.705Z,9.10
2019-05-05T23:59:24.077Z,13.13
